Time;durP1;ratioP1;P1;durP2;ratioP2;P2;SDS_P1;SDS_P2;PMS_P1;PMS_P2;Temp;Humidity;BMP_temperature;BMP_pressure;BME280_temperature;BME280_humidity;BME280_pressure;Samples;Min_cycle;Max_cycle;Signal;HPM_P1;HPM_P2
2023/03/15 00:00:14;;;;;;;5.70;1.52;;;;;;;-1.27;100.00;100224.91;7391224;19;20205;-37
2023/03/15 00:02:44;;;;;;;2.85;0.90;;;;;;;-1.22;100.00;100232.88;7394513;19;20141;-36
2023/03/15 00:05:14;;;;;;;3.10;1.40;;;;;;;-1.17;100.00;100235.78;7389265;19;20250;-37
2023/03/15 00:07:46;;;;;;;4.90;1.30;;;;;;;-1.14;100.00;100228.41;7394620;19;20137;-37
2023/03/15 00:10:15;;;;;;;4.03;1.85;;;;;;;-1.08;100.00;100236.50;7388634;19;20215;-37
2023/03/15 00:12:45;;;;;;;2.83;1.10;;;;;;;-1.07;100.00;100247.53;7391188;19;20131;-37
2023/03/15 00:15:15;;;;;;;5.50;1.30;;;;;;;-1.07;100.00;100253.50;7388727;19;20229;-36
2023/03/15 00:17:45;;;;;;;2.95;1.20;;;;;;;-1.05;100.00;100257.03;7390171;19;20134;-37
2023/03/15 00:20:17;;;;;;;13.05;2.05;;;;;;;-1.04;100.00;100271.44;7385791;19;20235;-38
2023/03/15 00:22:49;;;;;;;10.18;1.77;;;;;;;-1.05;100.00;100277.28;7390728;19;20149;-37
2023/03/15 00:25:19;;;;;;;4.82;1.52;;;;;;;-1.09;100.00;100277.78;7388285;19;20567;-36
2023/03/15 00:27:48;;;;;;;2.28;1.25;;;;;;;-1.07;100.00;100285.53;7390634;19;20137;-36
2023/03/15 00:30:19;;;;;;;7.75;2.00;;;;;;;-1.04;100.00;100288.31;7388958;19;20235;-37
2023/03/15 00:32:49;;;;;;;1.90;1.02;;;;;;;-1.09;100.00;100300.56;7390544;19;20157;-36
2023/03/15 00:35:19;;;;;;;6.57;1.92;;;;;;;-1.09;100.00;100303.13;7388032;19;20200;-36
2023/03/15 00:37:53;;;;;;;13.52;1.35;;;;;;;-1.14;100.00;100309.44;7390037;19;20143;-36
2023/03/15 00:40:22;;;;;;;4.03;1.55;;;;;;;-1.14;100.00;100306.91;7389189;19;20190;-36
2023/03/15 00:42:52;;;;;;;6.75;1.75;;;;;;;-1.13;100.00;100311.25;7398369;19;20123;-36
2023/03/15 00:45:23;;;;;;;7.60;1.80;;;;;;;-1.11;100.00;100317.31;7394996;19;20832;-37
2023/03/15 00:47:53;;;;;;;7.05;1.65;;;;;;;-1.20;100.00;100319.97;7397418;19;20138;-37
2023/03/15 00:50:23;;;;;;;3.28;1.40;;;;;;;-1.17;100.00;100327.84;7395312;19;20194;-36
2023/03/15 00:52:55;;;;;;;7.68;1.77;;;;;;;-1.15;100.00;100327.94;7398263;19;20127;-37
2023/03/15 00:55:25;;;;;;;4.20;1.73;;;;;;;-1.15;100.00;100335.53;7395529;19;20222;-37
2023/03/15 00:57:55;;;;;;;4.10;1.17;;;;;;;-1.16;100.00;100333.75;7397482;19;20134;-36
2023/03/15 01:00:26;;;;;;;3.80;1.48;;;;;;;-1.15;100.00;100340.59;7394314;19;21081;-36
2023/03/15 01:02:56;;;;;;;7.05;1.38;;;;;;;-1.17;100.00;100337.97;7397699;19;20708;-36
2023/03/15 01:05:25;;;;;;;4.82;1.70;;;;;;;-1.18;100.00;100351.34;7394004;19;20216;-36
2023/03/15 01:07:57;;;;;;;9.80;1.55;;;;;;;-1.16;100.00;100354.03;7396319;19;20131;-35
2023/03/15 01:10:27;;;;;;;8.05;1.75;;;;;;;-1.15;100.00;100350.72;7394441;19;20504;-36
2023/03/15 01:12:59;;;;;;;5.38;1.85;;;;;;;-1.14;100.00;100353.41;7397080;19;20135;-36
2023/03/15 01:15:29;;;;;;;3.45;1.33;;;;;;;-1.17;100.00;100348.09;7394245;19;20186;-36
2023/03/15 01:17:58;;;;;;;3.70;1.60;;;;;;;-1.16;100.00;100348.97;7397112;19;20601;-38
2023/03/15 01:20:27;;;;;;;3.15;1.80;;;;;;;-1.12;100.00;100356.06;7391117;19;20225;-37
2023/03/15 01:22:59;;;;;;;5.75;1.30;;;;;;;-1.13;100.00;100356.81;7396177;19;20127;-36
2023/03/15 01:25:29;;;;;;;2.85;0.95;;;;;;;-1.12;100.00;100356.06;7394173;19;20190;-36
2023/03/15 01:27:58;;;;;;;5.13;1.80;;;;;;;-1.13;100.00;100355.16;7395835;19;20122;-37
2023/03/15 01:30:28;;;;;;;3.55;1.25;;;;;;;-1.08;100.00;100350.47;7392887;19;20190;-37
2023/03/15 01:32:58;;;;;;;1.58;0.95;;;;;;;-1.12;100.00;100358.59;7396179;19;20129;-36
2023/03/15 01:35:27;;;;;;;4.50;1.75;;;;;;;-1.10;100.00;100364.66;7393229;19;20228;-37
2023/03/15 01:37:59;;;;;;;5.82;1.83;;;;;;;-1.11;100.00;100362.88;7397856;19;20522;-36
2023/03/15 01:40:29;;;;;;;5.63;1.00;;;;;;;-1.10;100.00;100374.78;7390791;19;20186;-36
2023/03/15 01:43:16;;;;;;;17.45;1.70;;;;;;;-1.13;100.00;100377.09;7396151;19;20130;-38
2023/03/15 01:46:00;;;;;;;6.47;2.03;;;;;;;-1.11;100.00;100378.09;7393058;19;20212;-36
2023/03/15 01:48:32;;;;;;;2.47;0.90;;;;;;;-1.16;100.00;100374.28;7392105;19;20265;-36
2023/03/15 01:51:03;;;;;;;5.93;1.70;;;;;;;-1.16;100.00;100385.31;7398216;19;20141;-36
2023/03/15 01:53:35;;;;;;;2.15;0.98;;;;;;;-1.17;100.00;100395.31;7392950;19;20129;-35
2023/03/15 01:56:06;;;;;;;6.07;2.08;;;;;;;-1.15;100.00;100386.19;7395256;19;20131;-36
2023/03/15 01:58:36;;;;;;;3.15;1.10;;;;;;;-1.17;100.00;100401.25;7395243;19;20207;-36
2023/03/15 02:01:06;;;;;;;3.53;1.15;;;;;;;-1.16;100.00;100399.59;7395347;19;20134;-35
2023/03/15 02:03:37;;;;;;;3.42;1.90;;;;;;;-1.16;100.00;100403.03;7387231;19;20233;-37
2023/03/15 02:06:09;;;;;;;5.63;1.73;;;;;;;-1.12;100.00;100404.19;7395139;19;20591;-36
2023/03/15 02:08:44;;;;;;;6.05;1.45;;;;;;;-1.14;100.00;100403.13;7391721;19;20165;-36
2023/03/15 02:11:15;;;;;;;7.18;2.15;;;;;;;-1.16;100.00;100404.66;7395450;19;20130;-36
2023/03/15 02:13:45;;;;;;;3.08;1.75;;;;;;;-1.17;100.00;100408.88;7391995;19;20201;-37
2023/03/15 02:16:14;;;;;;;8.75;2.00;;;;;;;-1.11;100.00;100414.44;7395242;19;20517;-36
2023/03/15 02:18:44;;;;;;;5.32;1.90;;;;;;;-1.11;100.00;100413.53;7388694;19;20217;-36
2023/03/15 02:21:35;;;;;;;3.78;1.70;;;;;;;-1.13;100.00;100415.06;7394303;19;20131;-37
2023/03/15 02:24:17;;;;;;;3.20;1.50;;;;;;;-1.11;100.00;100426.19;7392135;19;20254;-36
2023/03/15 02:26:50;;;;;;;5.63;1.88;;;;;;;-1.11;100.00;100419.50;7398163;19;20852;-37
2023/03/15 02:29:23;;;;;;;6.20;3.13;;;;;;;-1.12;100.00;100416.84;7391939;19;20683;-36
2023/03/15 02:31:53;;;;;;;5.70;2.63;;;;;;;-1.09;100.00;100427.19;7395034;19;20193;-36
2023/03/15 02:34:24;;;;;;;6.78;2.70;;;;;;;-1.09;100.00;100423.03;7391479;19;20198;-38
2023/03/15 02:36:54;;;;;;;4.55;1.92;;;;;;;-1.07;100.00;100424.81;7394304;19;20147;-37
2023/03/15 02:39:26;;;;;;;6.85;2.70;;;;;;;-1.07;100.00;100419.75;7390294;19;20613;-36
2023/03/15 02:41:57;;;;;;;11.85;5.10;;;;;;;-1.03;100.00;100427.72;7394166;19;20203;-36
2023/03/15 02:44:32;;;;;;;8.45;3.58;;;;;;;-1.06;100.00;100437.59;7391150;19;20201;-37
2023/03/15 02:47:04;;;;;;;5.93;2.78;;;;;;;-1.03;100.00;100436.97;7393862;19;20137;-36
2023/03/15 02:49:37;;;;;;;10.93;2.35;;;;;;;-1.11;100.00;100439.75;7389781;19;20664;-36
2023/03/15 02:52:08;;;;;;;6.93;3.25;;;;;;;-1.07;100.00;100451.03;7393379;19;20138;-36
2023/03/15 02:54:38;;;;;;;3.95;1.60;;;;;;;-1.09;100.00;100453.44;7391180;19;20221;-35
2023/03/15 02:57:07;;;;;;;6.05;2.72;;;;;;;-1.11;100.00;100465.09;7393929;19;20207;-36
2023/03/15 02:59:40;;;;;;;6.90;2.80;;;;;;;-1.06;100.00;100462.94;7390022;19;20214;-36
2023/03/15 03:02:11;;;;;;;9.73;3.65;;;;;;;-1.08;100.00;100464.44;7393391;19;20148;-36
2023/03/15 03:04:40;;;;;;;9.25;3.90;;;;;;;-1.07;100.00;100461.16;7387252;19;20548;-37
2023/03/15 03:07:10;;;;;;;8.23;3.60;;;;;;;-1.03;100.00;100470.78;7393551;19;20162;-37
2023/03/15 03:09:39;;;;;;;9.50;3.70;;;;;;;-0.99;100.00;100480.41;7388921;19;20224;-36
2023/03/15 03:12:09;;;;;;;5.30;2.80;;;;;;;-0.98;100.00;100492.31;7393441;19;20131;-37
2023/03/15 03:14:44;;;;;;;8.43;4.18;;;;;;;-0.97;100.00;100493.22;7390733;19;20198;-36
2023/03/15 03:17:14;;;;;;;6.50;3.75;;;;;;;-0.99;100.00;100504.84;7393107;19;20146;-37
2023/03/15 03:19:43;;;;;;;8.13;3.42;;;;;;;-0.96;100.00;100513.59;7386346;19;20193;-36
2023/03/15 03:22:14;;;;;;;5.15;3.22;;;;;;;-0.96;100.00;100517.78;7392389;19;20499;-37
2023/03/15 03:24:44;;;;;;;6.70;3.53;;;;;;;-0.97;100.00;100514.34;7390704;19;20194;-36
2023/03/15 03:27:15;;;;;;;7.68;3.95;;;;;;;-0.97;100.00;100519.41;7392950;19;20134;-38
2023/03/15 03:29:47;;;;;;;9.95;4.82;;;;;;;-0.94;100.00;100528.03;7389771;19;20194;-36
2023/03/15 03:32:17;;;;;;;9.93;4.20;;;;;;;-0.98;100.00;100532.84;7396984;19;20141;-37
2023/03/15 03:34:47;;;;;;;8.18;3.78;;;;;;;-0.99;100.00;100536.13;7389354;19;20555;-37
2023/03/15 03:37:18;;;;;;;9.90;3.70;;;;;;;-0.99;100.00;100546.25;7392286;19;20158;-37
2023/03/15 03:39:48;;;;;;;8.43;4.00;;;;;;;-0.97;100.00;100544.75;7388823;19;20209;-36
2023/03/15 03:42:17;;;;;;;9.38;4.47;;;;;;;-0.97;100.00;100559.06;7392614;19;20139;-37
2023/03/15 03:44:49;;;;;;;7.40;3.95;;;;;;;-0.95;100.00;100552.47;7389157;19;20194;-37
2023/03/15 03:47:19;;;;;;;14.63;5.00;;;;;;;-0.82;100.00;100557.81;7392896;19;20605;-36
2023/03/15 03:49:48;;;;;;;7.25;3.58;;;;;;;-0.84;100.00;100561.88;7388757;19;20194;-36
2023/03/15 03:52:18;;;;;;;8.10;4.13;;;;;;;-0.79;100.00;100566.41;7391675;19;20135;-37
2023/03/15 03:54:47;;;;;;;9.20;3.80;;;;;;;-0.78;100.00;100570.75;7388842;19;20201;-39
2023/03/15 03:57:16;;;;;;;8.75;3.63;;;;;;;-0.88;100.00;100569.97;7391755;19;20123;-37
2023/03/15 03:59:46;;;;;;;7.72;3.65;;;;;;;-0.87;100.00;100566.66;7388902;19;20856;-39
2023/03/15 04:02:18;;;;;;;9.35;3.22;;;;;;;-0.79;100.00;100562.25;7391624;19;20511;-37
2023/03/15 04:04:49;;;;;;;6.70;3.17;;;;;;;-0.77;100.00;100565.78;7388238;19;20194;-37
2023/03/15 04:07:18;;;;;;;6.25;2.50;;;;;;;-0.88;100.00;100564.03;7391873;19;20142;-39
2023/03/15 04:09:48;;;;;;;7.65;3.08;;;;;;;-0.96;100.00;100574.38;7386042;19;20194;-36
2023/03/15 04:12:17;;;;;;;11.82;4.03;;;;;;;-0.84;100.00;100586.31;7391271;19;20127;-37
2023/03/15 04:14:47;;;;;;;5.45;2.50;;;;;;;-0.88;100.00;100591.91;7388672;19;20190;-37
2023/03/15 04:17:19;;;;;;;4.68;2.05;;;;;;;-0.89;100.00;100592.63;7391104;19;20137;-38
2023/03/15 04:19:49;;;;;;;4.53;2.08;;;;;;;-0.99;100.00;100599.47;7390282;19;20201;-36
2023/03/15 04:22:18;;;;;;;4.25;1.90;;;;;;;-0.88;100.00;100604.56;7391236;19;20137;-38
2023/03/15 04:24:49;;;;;;;3.95;1.63;;;;;;;-0.92;100.00;100623.66;7388242;19;20194;-39
2023/03/15 04:27:18;;;;;;;5.18;2.00;;;;;;;-0.94;100.00;100620.09;7390990;19;20145;-37
2023/03/15 04:29:48;;;;;;;5.13;1.52;;;;;;;-0.91;100.00;100619.50;7387646;19;20197;-37
2023/03/15 04:32:20;;;;;;;3.83;1.60;;;;;;;-1.05;100.00;100626.78;7391204;19;20127;-37
2023/03/15 04:34:50;;;;;;;5.00;1.58;;;;;;;-1.17;100.00;100635.88;7388511;19;20626;-37
2023/03/15 04:37:20;;;;;;;4.15;1.80;;;;;;;-1.25;100.00;100638.63;7390683;19;20611;-36
2023/03/15 04:39:51;;;;;;;3.03;1.40;;;;;;;-1.26;100.00;100639.38;7387437;19;20205;-36
2023/03/15 04:42:20;;;;;;;4.00;1.75;;;;;;;-1.28;100.00;100653.53;7390458;19;20266;-36
2023/03/15 04:44:50;;;;;;;3.28;1.85;;;;;;;-1.29;100.00;100650.88;7384844;19;20190;-37
2023/03/15 04:47:22;;;;;;;2.65;1.50;;;;;;;-1.22;100.00;100654.06;7387919;19;20147;-36
2023/03/15 04:49:51;;;;;;;2.70;1.48;;;;;;;-1.25;100.00;100657.97;7387154;19;20210;-36
2023/03/15 04:52:21;;;;;;;2.50;1.40;;;;;;;-1.25;100.00;100651.28;7390190;19;20343;-36
2023/03/15 04:54:50;;;;;;;4.80;2.05;;;;;;;-1.26;100.00;100658.72;7387522;19;20201;-37
2023/03/15 04:57:20;;;;;;;3.55;1.70;;;;;;;-1.29;100.00;100646.69;7389941;19;20496;-38
2023/03/15 04:59:49;;;;;;;7.05;2.35;;;;;;;-1.29;100.00;100641.63;7386252;19;20198;-36
2023/03/15 05:02:21;;;;;;;5.20;2.10;;;;;;;-1.28;100.00;100653.53;7389264;19;20134;-36
2023/03/15 05:04:51;;;;;;;4.55;2.40;;;;;;;-1.31;100.00;100662.50;7386304;19;20619;-36
2023/03/15 05:07:20;;;;;;;4.38;2.03;;;;;;;-1.37;100.00;100660.31;7388175;19;20131;-36
2023/03/15 05:09:50;;;;;;;6.28;2.88;;;;;;;-1.41;100.00;100670.94;7386481;19;20213;-36
2023/03/15 05:12:19;;;;;;;14.35;4.68;;;;;;;-1.36;100.00;100672.22;7389688;19;20134;-36
2023/03/15 05:14:49;;;;;;;11.73;5.40;;;;;;;-1.36;100.00;100679.81;7386776;19;20200;-37
2023/03/15 05:17:24;;;;;;;16.80;6.55;;;;;;;-1.38;100.00;100683.88;7389427;19;20226;-36
2023/03/15 05:19:53;;;;;;;11.70;5.53;;;;;;;-1.34;100.00;100680.84;7385674;19;20198;-41
2023/03/15 05:22:24;;;;;;;17.20;7.32;;;;;;;-1.36;100.00;100677.28;7389535;19;20135;-37
2023/03/15 05:24:55;;;;;;;18.60;6.90;;;;;;;-1.37;100.00;100683.97;7389162;19;20859;-36
2023/03/15 05:27:24;;;;;;;20.65;7.47;;;;;;;-1.35;100.00;100686.66;7391616;19;20129;-36
2023/03/15 05:29:53;;;;;;;17.83;6.47;;;;;;;-1.38;100.00;100686.41;7393460;19;20202;-36
2023/03/15 05:32:26;;;;;;;27.27;9.77;;;;;;;-1.39;100.00;100694.75;7396966;19;20547;-38
2023/03/15 05:34:56;;;;;;;28.17;9.18;;;;;;;-1.40;100.00;100695.47;7393429;19;20249;-36
2023/03/15 05:37:25;;;;;;;26.05;9.73;;;;;;;-1.41;100.00;100708.91;7395707;19;20131;-40
2023/03/15 05:39:55;;;;;;;27.08;9.35;;;;;;;-1.44;100.00;100713.69;7392071;19;20274;-37
2023/03/15 05:42:28;;;;;;;25.38;8.30;;;;;;;-1.43;100.00;100713.81;7395758;19;20135;-38
2023/03/15 05:44:58;;;;;;;28.55;8.15;;;;;;;-1.40;100.00;100713.19;7391551;19;20494;-41
2023/03/15 05:47:30;;;;;;;24.05;9.45;;;;;;;-1.43;100.00;100718.88;7396278;19;20677;-41
2023/03/15 05:50:03;;;;;;;16.58;7.57;;;;;;;-1.50;100.00;100722.53;7392869;19;20307;-41
2023/03/15 05:52:33;;;;;;;15.73;6.68;;;;;;;-1.51;100.00;100725.81;7398979;19;20202;-38
2023/03/15 05:55:02;;;;;;;19.83;7.50;;;;;;;-1.51;100.00;100733.41;7395227;19;20202;-41
2023/03/15 05:57:32;;;;;;;16.15;6.97;;;;;;;-1.47;100.00;100738.72;7398932;19;20642;-39
2023/03/15 06:00:03;;;;;;;16.92;6.20;;;;;;;-1.46;100.00;100749.00;7394482;19;20185;-42
2023/03/15 06:02:35;;;;;;;16.50;6.22;;;;;;;-1.50;100.00;100752.00;7398488;19;20142;-42
2023/03/15 06:05:05;;;;;;;18.45;7.70;;;;;;;-1.44;100.00;100754.19;7394090;19;20198;-41
2023/03/15 06:07:34;;;;;;;16.33;6.47;;;;;;;-1.44;100.00;100759.28;7396017;19;20135;-37
2023/03/15 06:10:04;;;;;;;14.50;7.35;;;;;;;-1.43;100.00;100763.56;7391386;19;20655;-40
2023/03/15 06:12:34;;;;;;;12.77;6.50;;;;;;;-1.43;100.00;100771.16;7397901;19;20127;-40
2023/03/15 06:15:03;;;;;;;21.00;6.60;;;;;;;-1.47;100.00;100771.63;7394492;19;20661;-39
2023/03/15 06:17:35;;;;;;;17.88;7.45;;;;;;;-1.47;100.00;100774.16;7397658;19;20509;-40
2023/03/15 06:20:05;;;;;;;16.10;6.18;;;;;;;-1.47;100.00;100776.69;7393350;19;20190;-39
2023/03/15 06:22:34;;;;;;;15.68;5.93;;;;;;;-1.47;100.00;100789.34;7397176;19;20170;-40
2023/03/15 06:25:04;;;;;;;17.23;6.80;;;;;;;-1.44;100.00;100797.25;7393593;19;20201;-39
2023/03/15 06:27:33;;;;;;;19.45;6.88;;;;;;;-1.42;100.00;100810.91;7396096;19;20142;-40
2023/03/15 06:30:03;;;;;;;18.77;7.50;;;;;;;-1.43;100.00;100804.06;7394344;19;20190;-40
2023/03/15 06:32:35;;;;;;;23.67;8.48;;;;;;;-1.38;100.00;100803.72;7398175;19;20154;-39
2023/03/15 06:35:04;;;;;;;20.58;8.07;;;;;;;-1.33;100.00;100798.19;7391228;19;20201;-37
2023/03/15 06:37:35;;;;;;;15.90;6.13;;;;;;;-1.29;100.00;100808.72;7397172;19;20153;-40
2023/03/15 06:40:07;;;;;;;14.18;6.07;;;;;;;-1.26;100.00;100814.09;7394186;19;20528;-40
2023/03/15 06:42:37;;;;;;;23.13;6.63;;;;;;;-1.16;100.00;100808.22;7398180;19;20131;-40
2023/03/15 06:45:09;;;;;;;34.20;7.88;;;;;;;-1.07;100.00;100810.69;7392099;19;20201;-41
2023/03/15 06:47:41;;;;;;;23.73;9.77;;;;;;;-0.99;100.00;100809.72;7396042;19;20135;-40
2023/03/15 06:50:12;;;;;;;23.05;7.65;;;;;;;-0.89;100.00;100806.34;7393609;19;20200;-43
2023/03/15 06:52:42;;;;;;;16.05;7.93;;;;;;;-0.86;100.00;100808.25;7397010;19;20149;-45
2023/03/15 06:55:16;;;;;;;21.42;7.88;;;;;;;-0.83;100.00;100811.97;7392408;19;20198;-40
2023/03/15 06:57:45;;;;;;;15.05;6.55;;;;;;;-0.79;100.00;100813.13;7396415;19;20135;-40
2023/03/15 07:00:16;;;;;;;14.80;6.60;;;;;;;-0.78;100.00;100819.94;7393187;19;20215;-40
2023/03/15 07:02:48;;;;;;;19.73;6.50;;;;;;;-0.71;100.00;100814.66;7396539;19;20160;-43
2023/03/15 07:05:18;;;;;;;14.20;6.35;;;;;;;-0.65;100.00;100831.19;7392259;19;20190;-40
2023/03/15 07:07:48;;;;;;;13.32;6.28;;;;;;;-0.66;100.00;100844.59;7394823;19;20135;-40
2023/03/15 07:10:17;;;;;;;13.73;5.90;;;;;;;-0.66;100.00;100859.81;7392797;19;20682;-40
2023/03/15 07:12:47;;;;;;;14.30;7.18;;;;;;;-0.66;100.00;100882.63;7396725;19;20156;-41
2023/03/15 07:15:16;;;;;;;31.80;9.98;;;;;;;-0.48;100.00;100908.69;7392305;19;20233;-39
2023/03/15 07:17:48;;;;;;;34.80;10.80;;;;;;;-0.39;100.00;100924.75;7395272;19;20657;-39
2023/03/15 07:20:18;;;;;;;19.27;7.65;;;;;;;-0.47;100.00;100938.41;7391764;19;20277;-43
2023/03/15 07:22:48;;;;;;;20.88;8.90;;;;;;;-0.48;100.00;100932.44;7395581;19;20143;-41
2023/03/15 07:25:22;;;;;;;17.85;6.28;;;;;;;-0.66;100.00;100938.38;7392686;19;20224;-42
2023/03/15 07:27:52;;;;;;;8.98;5.35;;;;;;;-0.60;100.00;100942.38;7394035;19;20135;-39
2023/03/15 07:30:22;;;;;;;12.15;5.20;;;;;;;-0.52;100.00;100940.50;7392722;19;20564;-41
2023/03/15 07:32:54;;;;;;;26.83;7.53;;;;;;;-0.66;100.00;100948.53;7396616;19;20174;-41
2023/03/15 07:35:23;;;;;;;13.27;6.28;;;;;;;-0.64;100.00;100949.53;7393188;19;20324;-41
2023/03/15 07:37:53;;;;;;;14.80;5.88;;;;;;;-0.62;100.00;100953.13;7394927;19;20611;-39
2023/03/15 07:40:25;;;;;;;18.40;8.10;;;;;;;-0.59;100.00;100966.06;7389938;19;20187;-40
2023/03/15 07:42:54;;;;;;;14.18;6.70;;;;;;;-0.57;100.00;100967.06;7394911;19;20629;-40
2023/03/15 07:45:24;;;;;;;11.70;5.68;;;;;;;-0.45;100.00;100972.38;7390205;19;20210;-40
2023/03/15 07:47:56;;;;;;;16.33;7.28;;;;;;;-0.56;100.00;100977.34;7392606;19;20143;-41
2023/03/15 07:50:25;;;;;;;15.10;6.95;;;;;;;-0.50;100.00;100978.66;7389733;19;20179;-40
2023/03/15 07:52:54;;;;;;;11.60;6.85;;;;;;;-0.45;100.00;100982.50;7394692;19;20138;-40
2023/03/15 07:55:24;;;;;;;10.00;5.88;;;;;;;-0.44;100.00;100980.13;7389773;19;20202;-40
2023/03/15 07:57:53;;;;;;;14.25;6.38;;;;;;;-0.38;100.00;100978.88;7393317;19;20150;-40
2023/03/15 08:00:23;;;;;;;51.85;19.95;;;;;;;-0.34;100.00;100979.31;7390707;19;20205;-40
2023/03/15 08:02:55;;;;;;;18.88;8.38;;;;;;;-0.36;100.00;100974.84;7393602;19;20146;-40
2023/03/15 08:05:25;;;;;;;18.88;8.20;;;;;;;-0.22;100.00;100976.94;7390107;19;20199;-41
2023/03/15 08:07:57;;;;;;;23.13;10.02;;;;;;;-0.28;100.00;100972.25;7393063;19;20145;-42
2023/03/15 08:10:27;;;;;;;22.85;7.28;;;;;;;-0.14;100.00;100972.56;7390821;19;20201;-40
2023/03/15 08:12:56;;;;;;;18.73;8.93;;;;;;;0.12;100.00;100974.84;7394032;19;20142;-44
2023/03/15 08:15:26;;;;;;;43.88;18.45;;;;;;;0.17;100.00;100979.44;7390043;19;20213;-40
2023/03/15 08:17:58;;;;;;;22.00;8.57;;;;;;;0.34;100.00;100976.72;7393153;19;20154;-40
2023/03/15 08:20:28;;;;;;;41.55;17.73;;;;;;;0.40;100.00;100969.63;7390725;19;20689;-42
2023/03/15 08:22:58;;;;;;;14.18;6.00;;;;;;;0.28;100.00;100975.28;7393848;19;20142;-41
2023/03/15 08:25:28;;;;;;;14.20;5.25;;;;;;;0.27;100.00;100989.63;7390002;19;20202;-40
2023/03/15 08:27:57;;;;;;;9.88;4.18;;;;;;;0.19;100.00;100998.22;7392194;19;20141;-41
2023/03/15 08:30:26;;;;;;;16.17;4.03;;;;;;;0.29;100.00;101002.47;7389804;19;20190;-40
2023/03/15 08:32:59;;;;;;;10.52;4.82;;;;;;;0.40;100.00;101007.72;7393444;19;20544;-40
2023/03/15 08:35:29;;;;;;;7.10;2.97;;;;;;;0.30;100.00;101020.34;7390212;19;20202;-42
2023/03/15 08:38:01;;;;;;;13.13;4.13;;;;;;;0.22;100.00;101026.41;7392954;19;20141;-39
2023/03/15 08:40:31;;;;;;;8.45;4.00;;;;;;;0.32;100.00;101031.56;7390483;19;20583;-43
2023/03/15 08:43:01;;;;;;;25.00;8.68;;;;;;;0.49;100.00;101045.72;7393870;19;20138;-40
2023/03/15 08:45:31;;;;;;;80.70;29.48;;;;;;;0.63;100.00;101039.28;7388628;19;20202;-40
2023/03/15 08:48:13;;;;;;;11.98;4.15;;;;;;;0.90;100.00;101042.41;7390975;19;20143;-40
2023/03/15 08:50:43;;;;;;;6.10;2.63;;;;;;;0.86;100.00;101057.28;7389752;19;20221;-40
2023/03/15 08:53:12;;;;;;;8.02;3.13;;;;;;;1.23;100.00;101046.78;7392136;19;20419;-40
2023/03/15 08:55:43;;;;;;;8.20;1.80;;;;;;;1.28;100.00;101060.78;7389867;19;20201;-40
2023/03/15 08:58:13;;;;;;;13.38;3.97;;;;;;;1.04;100.00;101091.84;7391553;19;20998;-40
2023/03/15 09:00:42;;;;;;;4.73;2.37;;;;;;;1.15;100.00;101110.59;7389828;19;20201;-41
2023/03/15 09:03:15;;;;;;;3.13;2.27;;;;;;;1.18;100.00;101113.38;7399432;19;20761;-41
2023/03/15 09:05:45;;;;;;;5.20;2.30;;;;;;;0.89;100.00;101119.41;7396866;19;20438;-41
2023/03/15 09:08:15;;;;;;;27.03;6.87;;;;;;;0.57;100.00;101121.66;7398350;19;20779;-42
2023/03/15 09:10:45;;;;;;;14.33;4.60;;;;;;;0.24;100.00;101142.56;7396456;19;20474;-42
2023/03/15 09:13:15;;;;;;;2.07;1.40;;;;;;;0.19;100.00;101150.50;7399570;19;20981;-42
2023/03/15 09:15:44;;;;;;;4.90;1.10;;;;;;;0.18;100.00;101153.78;7397060;19;20431;-40
2023/03/15 09:18:16;;;;;;;17.10;6.38;;;;;;;0.17;100.00;101149.47;7393620;19;20131;-40
2023/03/15 09:20:45;;;;;;;8.35;2.80;;;;;;;0.20;100.00;101145.56;7395410;19;20194;-41
2023/03/15 09:23:15;;;;;;;3.88;1.52;;;;;;;0.00;100.00;101146.31;7398898;19;20673;-40
2023/03/15 09:25:45;;;;;;;4.28;1.60;;;;;;;0.10;100.00;101141.31;7396227;19;20221;-40
2023/03/15 09:28:14;;;;;;;7.47;0.90;;;;;;;0.10;100.00;101143.84;7398402;19;20158;-40
2023/03/15 09:30:44;;;;;;;3.57;0.90;;;;;;;0.07;100.00;101138.50;7395602;19;20221;-41
2023/03/15 09:33:16;;;;;;;3.00;0.85;;;;;;;0.34;100.00;101144.25;7398790;19;20941;-40
2023/03/15 09:35:45;;;;;;;5.93;0.60;;;;;;;0.43;100.00;101135.69;7396847;19;20194;-40
2023/03/15 09:38:15;;;;;;;16.88;3.20;;;;;;;0.62;100.00;101136.53;7398162;19;20403;-41
2023/03/15 09:40:46;;;;;;;5.97;1.20;;;;;;;0.62;100.00;101136.53;7396309;19;20213;-40
2023/03/15 09:43:33;;;;;;;4.72;0.82;;;;;;;0.73;100.00;101141.69;7398278;19;20145;-39
2023/03/15 09:46:12;;;;;;;2.72;0.95;;;;;;;0.83;100.00;101136.66;7397107;19;20174;-40
2023/03/15 09:48:52;;;;;;;2.67;0.90;;;;;;;0.69;100.00;101142.16;7394625;19;20194;-40
2023/03/15 09:51:31;;;;;;;7.88;1.40;;;;;;;0.65;100.00;101149.53;7397611;19;20531;-41
2023/03/15 09:54:04;;;;;;;7.57;0.70;;;;;;;0.85;100.00;101150.38;7395572;19;20222;-41
2023/03/15 09:56:36;;;;;;;1.50;0.70;;;;;;;1.00;100.00;101165.16;7397573;19;20147;-40
2023/03/15 09:59:05;;;;;;;2.50;1.20;;;;;;;1.20;100.00;101170.34;7393036;19;20194;-40
2023/03/15 10:01:38;;;;;;;4.80;0.88;;;;;;;1.28;100.00;101170.97;7394396;19;20422;-39
2023/03/15 10:04:15;;;;;;;4.53;1.03;;;;;;;1.68;100.00;101165.84;7392112;19;20213;-42
2023/03/15 10:06:48;;;;;;;11.10;2.23;;;;;;;1.53;100.00;101190.00;7397084;19;20411;-40
2023/03/15 10:09:25;;;;;;;4.80;0.90;;;;;;;1.18;100.00;101189.63;7392415;19;20446;-41
2023/03/15 10:12:02;;;;;;;2.43;0.40;;;;;;;1.03;100.00;101195.94;7396514;19;20438;-43
2023/03/15 10:14:41;;;;;;;2.28;0.80;;;;;;;0.63;100.00;101195.84;7393747;19;20473;-43
2023/03/15 10:17:14;;;;;;;2.97;0.73;;;;;;;0.75;100.00;101185.88;7397222;19;20502;-46
2023/03/15 10:19:51;;;;;;;5.07;1.27;;;;;;;0.94;100.00;101185.88;7393753;19;20197;-41
2023/03/15 10:22:27;;;;;;;10.00;1.20;;;;;;;1.10;100.00;101188.09;7396134;19;20166;-40
2023/03/15 10:24:59;;;;;;;4.57;1.20;;;;;;;1.34;100.00;101161.34;7394020;19;20558;-41
2023/03/15 10:27:33;;;;;;;6.43;1.57;;;;;;;1.45;100.00;101167.31;7396934;19;20418;-41
2023/03/15 10:30:03;;;;;;;8.23;1.27;;;;;;;1.54;100.00;101169.75;7392476;19;20442;-41
2023/03/15 10:32:39;;;;;;;4.23;1.10;;;;;;;1.75;100.00;101160.50;7397012;19;20419;-43
2023/03/15 10:35:16;;;;;;;5.43;1.00;;;;;;;1.89;100.00;101165.84;7392499;19;20446;-44
2023/03/15 10:37:46;;;;;;;6.90;1.73;;;;;;;2.14;100.00;101162.81;7396473;19;20389;-40
2023/03/15 10:40:17;;;;;;;12.03;1.63;;;;;;;2.18;100.00;101157.22;7392567;19;20422;-40
2023/03/15 10:42:47;;;;;;;3.50;1.10;;;;;;;2.07;100.00;101175.78;7397010;19;20435;-40
2023/03/15 10:45:23;;;;;;;4.93;1.33;;;;;;;2.23;100.00;101176.31;7391811;19;20435;-39
2023/03/15 10:47:53;;;;;;;5.53;1.30;;;;;;;2.19;100.00;101181.91;7396202;19;20774;-42
2023/03/15 10:50:34;;;;;;;8.30;1.47;;;;;;;1.84;100.00;101206.19;7394244;19;20824;-42
2023/03/15 10:53:10;;;;;;;5.33;1.27;;;;;;;1.51;100.00;101214.41;7395991;19;20379;-41
2023/03/15 10:55:45;;;;;;;6.20;0.93;;;;;;;1.09;100.00;101216.81;7393870;19;20434;-42
2023/03/15 10:58:22;;;;;;;7.30;1.23;;;;;;;0.98;100.00;101207.34;7395902;19;20429;-46
2023/03/15 11:00:55;;;;;;;6.53;1.00;;;;;;;1.13;100.00;101195.09;7395777;19;20414;-43
2023/03/15 11:03:27;;;;;;;6.40;1.37;;;;;;;1.35;100.00;101190.22;7395236;19;20428;-41
2023/03/15 11:06:01;;;;;;;5.78;1.35;;;;;;;1.60;100.00;101187.22;7395905;19;20467;-42
2023/03/15 11:08:40;;;;;;;8.00;1.80;;;;;;;1.80;100.00;101181.25;7392746;19;20153;-41
2023/03/15 11:11:10;;;;;;;5.10;1.10;;;;;;;1.91;100.00;101184.72;7394262;19;20153;-40
2023/03/15 11:13:41;;;;;;;6.23;1.10;;;;;;;2.25;100.00;101172.22;7392695;19;20443;-40
2023/03/15 11:16:22;;;;;;;13.97;1.47;;;;;;;2.48;100.00;101170.66;7393782;19;20379;-41
2023/03/15 11:18:57;;;;;;;4.33;1.00;;;;;;;2.58;100.00;101179.94;7393433;19;20391;-40
2023/03/15 11:21:33;;;;;;;2.07;0.73;;;;;;;2.39;100.00;101198.81;7395521;19;20410;-42
2023/03/15 11:24:03;;;;;;;3.93;0.93;;;;;;;2.25;100.00;101202.78;7389325;19;20428;-40
2023/03/15 11:26:36;;;;;;;11.33;2.30;;;;;;;2.28;100.00;101227.59;7395178;19;20388;-41
2023/03/15 11:29:07;;;;;;;5.40;1.03;;;;;;;2.23;100.00;101227.22;7390965;19;20993;-39
2023/03/15 11:31:37;;;;;;;6.23;1.97;;;;;;;2.50;100.00;101235.38;7394499;19;20419;-40
2023/03/15 11:34:10;;;;;;;4.40;1.00;;;;;;;2.45;100.00;101239.19;7389251;19;20448;-40